createdAt,value
2023-05-10T00:01:49.946Z,10.47
2023-05-10T00:04:18.197Z,10.44
2023-05-10T00:06:46.861Z,10.46
2023-05-10T00:09:16.452Z,10.56
2023-05-10T00:11:44.753Z,10.54
2023-05-10T00:14:13.536Z,10.45
2023-05-10T00:16:41.853Z,10.44
2023-05-10T00:19:10.439Z,10.55
2023-05-10T00:21:38.646Z,10.49
2023-05-10T00:24:07.331Z,10.35
2023-05-10T00:26:36.870Z,10.39
2023-05-10T00:29:05.137Z,10.35
2023-05-10T00:31:33.350Z,10.36
2023-05-10T00:34:01.615Z,10.28
2023-05-10T00:36:29.907Z,10.23
2023-05-10T00:38:58.031Z,10.21
2023-05-10T00:41:26.228Z,10.43
2023-05-10T00:43:55.914Z,10.36
2023-05-10T00:46:25.609Z,10.26
2023-05-10T00:48:54.598Z,10.17
2023-05-10T00:51:22.987Z,10.30
2023-05-10T00:53:52.023Z,10.16
2023-05-10T00:56:23.949Z,10.18
2023-05-10T00:58:52.484Z,10.20
2023-05-10T01:01:22.153Z,10.05
2023-05-10T01:03:50.696Z,9.98
2023-05-10T01:06:18.852Z,10.08
2023-05-10T01:08:47.507Z,10.11
2023-05-10T01:11:16.177Z,10.10
2023-05-10T01:13:48.078Z,10.06
2023-05-10T01:16:17.252Z,9.94
2023-05-10T01:18:47.334Z,10.01
2023-05-10T01:21:24.279Z,10.06
2023-05-10T01:24:14.646Z,10.20
2023-05-10T01:27:22.288Z,10.10
2023-05-10T01:30:23.930Z,9.99
2023-05-10T01:32:59.836Z,9.98
2023-05-10T01:35:35.359Z,10.16
2023-05-10T01:38:14.474Z,10.12
2023-05-10T01:40:49.691Z,9.94
2023-05-10T01:43:24.619Z,9.89
2023-05-10T01:46:11.353Z,9.96
2023-05-10T01:48:47.258Z,9.79
2023-05-10T01:51:18.643Z,9.71
2023-05-10T01:53:49.890Z,9.93
2023-05-10T01:56:22.282Z,9.77
2023-05-10T01:58:52.522Z,9.80
2023-05-10T02:01:23.422Z,9.58
2023-05-10T02:03:55.773Z,9.64
2023-05-10T02:06:25.718Z,9.67
2023-05-10T02:08:55.774Z,9.59
2023-05-10T02:11:25.864Z,9.40
2023-05-10T02:13:55.953Z,9.38
2023-05-10T02:16:31.857Z,9.33
2023-05-10T02:19:03.931Z,9.57
2023-05-10T02:21:33.749Z,9.19
2023-05-10T02:24:04.664Z,9.18
2023-05-10T02:26:35.951Z,9.25
2023-05-10T02:29:05.540Z,9.15
2023-05-10T02:31:35.140Z,9.48
2023-05-10T02:34:06.052Z,9.27
2023-05-10T02:36:34.873Z,9.10
2023-05-10T02:39:04.296Z,8.93
2023-05-10T02:41:34.810Z,8.91
2023-05-10T02:44:04.767Z,8.96
2023-05-10T02:46:33.217Z,9.07
2023-05-10T02:49:01.988Z,9.05
2023-05-10T02:51:34.684Z,9.12
2023-05-10T02:54:18.248Z,9.09
2023-05-10T02:56:52.558Z,8.98
2023-05-10T02:59:20.795Z,8.79
2023-05-10T03:01:49.162Z,8.81
2023-05-10T03:04:17.529Z,8.91
2023-05-10T03:06:47.120Z,8.68
2023-05-10T03:09:17.075Z,8.75
2023-05-10T03:11:57.435Z,8.47
2023-05-10T03:14:40.359Z,8.62
2023-05-10T03:17:16.881Z,8.69
2023-05-10T03:19:50.802Z,8.79
2023-05-10T03:22:27.088Z,8.67
2023-05-10T03:24:58.395Z,8.56
2023-05-10T03:27:30.009Z,8.70
2023-05-10T03:29:59.091Z,8.49
2023-05-10T03:32:28.138Z,8.64
2023-05-10T03:34:56.509Z,8.65
2023-05-10T03:37:27.794Z,8.81
2023-05-10T03:39:55.982Z,8.82
2023-05-10T03:42:24.274Z,8.62
2023-05-10T03:44:52.418Z,8.76
2023-05-10T03:47:20.813Z,8.67
2023-05-10T03:49:48.986Z,8.65
2023-05-10T03:52:17.412Z,8.84
2023-05-10T03:54:46.942Z,9.15
2023-05-10T03:57:15.138Z,9.24
2023-05-10T03:59:43.289Z,9.33
2023-05-10T04:02:11.507Z,9.46
2023-05-10T04:04:39.762Z,9.46
2023-05-10T04:07:07.970Z,9.87
2023-05-10T04:09:36.731Z,9.95
2023-05-10T04:12:08.015Z,10.30
2023-05-10T04:14:38.220Z,10.34
2023-05-10T04:17:06.679Z,10.67
2023-05-10T04:19:35.469Z,10.72
2023-05-10T04:22:04.546Z,10.68
2023-05-10T04:24:32.749Z,10.65
2023-05-10T04:27:01.416Z,10.67
2023-05-10T04:29:30.893Z,10.70
2023-05-10T04:31:59.087Z,10.90
2023-05-10T04:34:27.414Z,11.14
2023-05-10T04:36:55.611Z,10.92
2023-05-10T04:39:23.747Z,11.18
2023-05-10T04:41:52.106Z,11.21
2023-05-10T04:44:20.585Z,11.10
2023-05-10T04:46:50.129Z,11.27
2023-05-10T04:49:18.925Z,11.24
2023-05-10T04:51:47.103Z,11.53
2023-05-10T04:54:15.371Z,11.74
2023-05-10T04:56:43.619Z,11.84
2023-05-10T04:59:11.785Z,11.99
2023-05-10T05:01:40.054Z,11.83
2023-05-10T05:04:09.894Z,11.72
2023-05-10T05:06:38.123Z,12.01
2023-05-10T05:09:06.428Z,12.14
2023-05-10T05:11:34.828Z,12.15
2023-05-10T05:14:03.094Z,12.12
2023-05-10T05:16:32.987Z,12.42
2023-05-10T05:19:01.966Z,12.32
2023-05-10T05:21:33.125Z,12.19
2023-05-10T05:24:01.738Z,12.34
2023-05-10T05:26:29.936Z,12.38
2023-05-10T05:28:58.101Z,12.67
2023-05-10T05:31:26.297Z,12.80
2023-05-10T05:33:54.870Z,12.74
2023-05-10T05:36:23.620Z,12.57
2023-05-10T05:38:53.099Z,12.74
2023-05-10T05:41:22.493Z,13.09
2023-05-10T05:43:50.743Z,13.35
2023-05-10T05:46:19.094Z,13.13
2023-05-10T05:48:47.398Z,13.47
2023-05-10T05:51:15.540Z,13.55
2023-05-10T05:53:43.685Z,13.57
2023-05-10T05:56:13.348Z,13.45
2023-05-10T05:58:41.770Z,13.44
2023-05-10T06:01:09.986Z,13.59
2023-05-10T06:03:38.234Z,13.95
2023-05-10T06:06:06.718Z,13.96
2023-05-10T06:08:34.962Z,13.92
2023-05-10T06:11:05.025Z,13.76
2023-05-10T06:13:36.427Z,13.60
2023-05-10T06:16:04.904Z,13.82
2023-05-10T06:18:33.430Z,14.35
2023-05-10T06:21:01.767Z,14.14
2023-05-10T06:23:29.905Z,14.11
2023-05-10T06:25:58.110Z,14.19
2023-05-10T06:28:26.386Z,14.54
2023-05-10T06:30:55.836Z,14.50
2023-05-10T06:33:24.310Z,14.65
2023-05-10T06:35:52.505Z,14.76
2023-05-10T06:38:20.682Z,15.01
2023-05-10T06:40:48.880Z,15.12
2023-05-10T06:43:17.189Z,15.28
2023-05-10T06:45:45.745Z,15.04
2023-05-10T06:48:15.348Z,15.00
2023-05-10T06:50:43.602Z,15.17
2023-05-10T06:53:12.705Z,15.58
2023-05-10T06:55:41.162Z,15.60
2023-05-10T06:58:09.356Z,15.75
2023-05-10T07:00:40.230Z,15.68
2023-05-10T07:03:08.573Z,15.89
2023-05-10T07:05:38.151Z,15.94
2023-05-10T07:08:06.411Z,15.85
2023-05-10T07:10:35.098Z,15.87
2023-05-10T07:13:03.360Z,15.93
2023-05-10T07:15:31.856Z,15.77
2023-05-10T07:18:00.304Z,15.81
2023-05-10T07:20:28.971Z,16.12
2023-05-10T07:22:58.566Z,16.16
2023-05-10T07:25:27.156Z,16.17
2023-05-10T07:27:55.369Z,16.50
2023-05-10T07:30:23.684Z,16.56
2023-05-10T07:32:51.943Z,16.43
2023-05-10T07:35:20.139Z,16.55
2023-05-10T07:37:48.310Z,17.20
2023-05-10T07:40:17.900Z,17.34
2023-05-10T07:42:46.555Z,16.94
2023-05-10T07:45:14.810Z,16.82
2023-05-10T07:47:43.227Z,16.92
2023-05-10T07:50:11.760Z,17.28
2023-05-10T07:52:40.328Z,17.19
2023-05-10T07:55:09.562Z,17.48
2023-05-10T07:57:39.817Z,17.28
2023-05-10T08:00:09.572Z,17.51
2023-05-10T08:02:43.792Z,17.64
2023-05-10T08:05:12.128Z,17.29
2023-05-10T08:07:40.317Z,17.28
2023-05-10T08:10:10.376Z,17.42
2023-05-10T08:12:40.133Z,17.42
2023-05-10T08:15:10.041Z,17.64
2023-05-10T08:17:38.367Z,17.54
2023-05-10T08:20:08.341Z,18.24
2023-05-10T08:22:36.763Z,17.97
2023-05-10T08:25:05.382Z,17.55
2023-05-10T08:27:33.555Z,17.69
2023-05-10T08:30:03.115Z,17.97
2023-05-10T08:32:31.807Z,18.22
2023-05-10T08:35:00.014Z,18.13
2023-05-10T08:37:31.443Z,18.52
2023-05-10T08:39:59.640Z,18.03
2023-05-10T08:42:32.150Z,18.08
2023-05-10T08:45:01.535Z,18.19
2023-05-10T08:47:31.446Z,18.20
2023-05-10T08:50:01.512Z,18.07
2023-05-10T08:52:31.922Z,18.40
2023-05-10T08:55:00.435Z,18.54
2023-05-10T08:57:28.772Z,18.81
2023-05-10T08:59:57.046Z,18.44
2023-05-10T09:02:26.072Z,18.30
2023-05-10T09:04:55.665Z,18.80
2023-05-10T09:07:23.987Z,18.50
2023-05-10T09:09:52.788Z,18.64
2023-05-10T09:12:20.975Z,18.82
2023-05-10T09:14:49.884Z,19.11
2023-05-10T09:17:18.380Z,18.91
2023-05-10T09:19:47.353Z,18.91
2023-05-10T09:22:16.848Z,18.96
2023-05-10T09:24:46.331Z,19.26
2023-05-10T09:27:14.534Z,19.35
2023-05-10T09:29:45.110Z,19.14
2023-05-10T09:32:13.840Z,19.64
2023-05-10T09:34:43.256Z,19.14
2023-05-10T09:37:11.630Z,19.00
2023-05-10T09:39:42.304Z,19.60
2023-05-10T09:42:11.897Z,19.55
2023-05-10T09:44:41.852Z,19.38
2023-05-10T09:47:10.281Z,19.20
2023-05-10T09:49:38.533Z,19.49
2023-05-10T09:52:08.497Z,19.34
2023-05-10T09:54:37.069Z,19.51
2023-05-10T09:57:06.940Z,19.45
2023-05-10T09:59:36.211Z,19.83
2023-05-10T10:02:04.834Z,19.98
2023-05-10T10:04:33.800Z,20.02
2023-05-10T10:07:04.792Z,19.94
2023-05-10T10:09:33.689Z,19.73
2023-05-10T10:12:03.009Z,20.14
2023-05-10T10:14:32.696Z,20.22
2023-05-10T10:19:35.323Z,20.28
2023-05-10T10:22:03.856Z,20.55
2023-05-10T10:24:32.192Z,20.70
2023-05-10T10:27:09.823Z,20.34
2023-05-10T10:29:49.485Z,20.54
2023-05-10T10:32:26.575Z,20.57
2023-05-10T10:34:57.120Z,20.46
2023-05-10T10:37:42.921Z,20.54
2023-05-10T10:40:32.664Z,20.41
2023-05-10T10:43:24.100Z,20.04
2023-05-10T10:46:15.585Z,20.91
2023-05-10T10:48:48.991Z,20.64
2023-05-10T10:51:17.277Z,20.89
2023-05-10T10:53:45.731Z,21.10
2023-05-10T10:56:16.284Z,21.26
2023-05-10T10:58:52.750Z,21.41
2023-05-10T11:01:22.434Z,21.30
2023-05-10T11:04:20.770Z,21.21
2023-05-10T11:06:49.050Z,20.86
2023-05-10T11:09:17.268Z,21.33
2023-05-10T11:11:55.863Z,21.27
2023-05-10T11:14:24.609Z,20.84
2023-05-10T11:16:54.337Z,20.95
2023-05-10T11:21:52.033Z,21.09
2023-05-10T11:24:22.882Z,21.60
2023-05-10T11:26:53.116Z,21.73
2023-05-10T11:29:21.894Z,21.62
2023-05-10T11:31:51.642Z,21.33
2023-05-10T11:34:34.357Z,21.19
2023-05-10T11:37:02.881Z,21.30
2023-05-10T11:39:32.016Z,21.44
2023-05-10T11:42:01.097Z,21.73
2023-05-10T11:44:31.474Z,21.97
2023-05-10T11:47:00.744Z,21.71
2023-05-10T11:49:30.406Z,21.92
2023-05-10T11:52:06.063Z,21.83
2023-05-10T11:54:35.815Z,21.66
2023-05-10T11:57:04.338Z,21.62
2023-05-10T11:59:32.777Z,21.75
2023-05-10T12:02:01.265Z,21.46
2023-05-10T12:04:31.255Z,22.06
2023-05-10T12:06:59.922Z,21.74
2023-05-10T12:09:42.639Z,21.88
2023-05-10T12:12:12.296Z,21.91
2023-05-10T12:14:40.479Z,21.86
2023-05-10T12:17:13.608Z,21.73
2023-05-10T12:19:44.639Z,21.71
2023-05-10T12:22:12.892Z,21.48
2023-05-10T12:24:41.162Z,21.59
2023-05-10T12:27:10.574Z,21.48
2023-05-10T12:29:41.586Z,21.42
2023-05-10T12:32:11.105Z,21.76
2023-05-10T12:34:39.529Z,21.44
2023-05-10T12:37:09.159Z,21.81
2023-05-10T12:39:44.878Z,21.46
2023-05-10T12:42:13.678Z,21.51
2023-05-10T12:44:41.898Z,21.74
2023-05-10T12:47:10.324Z,21.85
2023-05-10T12:49:38.518Z,21.41
2023-05-10T12:52:06.711Z,21.62
2023-05-10T12:54:36.262Z,21.50
2023-05-10T12:57:04.501Z,21.51
2023-05-10T12:59:32.825Z,21.83
2023-05-10T13:02:01.199Z,21.79
2023-05-10T13:04:29.491Z,21.70
2023-05-10T13:06:59.736Z,21.71
2023-05-10T13:09:29.502Z,21.53
2023-05-10T13:11:59.141Z,21.77
2023-05-10T13:14:27.784Z,21.68
2023-05-10T13:16:56.182Z,21.91
2023-05-10T13:19:24.439Z,22.21
2023-05-10T13:21:52.645Z,22.11
2023-05-10T13:24:20.947Z,22.30
2023-05-10T13:26:49.664Z,22.17
2023-05-10T13:29:20.129Z,21.98
2023-05-10T13:31:48.428Z,21.74
2023-05-10T13:34:16.785Z,21.69
2023-05-10T13:36:44.997Z,21.99
2023-05-10T13:39:13.254Z,21.57
2023-05-10T13:41:41.525Z,21.26
2023-05-10T13:44:10.124Z,21.60
2023-05-10T13:46:39.833Z,22.01
2023-05-10T13:49:08.339Z,22.55
2023-05-10T13:51:37.087Z,22.81
2023-05-10T13:54:05.826Z,22.60
2023-05-10T13:56:34.412Z,22.90
2023-05-10T13:59:03.026Z,22.70
2023-05-10T14:01:31.231Z,22.65
2023-05-10T14:04:01.018Z,22.31
2023-05-10T14:06:29.398Z,22.57
2023-05-10T14:08:57.903Z,22.01
2023-05-10T14:11:26.055Z,21.78
2023-05-10T14:13:54.260Z,22.32
2023-05-10T14:16:22.721Z,22.70
2023-05-10T14:18:50.991Z,22.23
2023-05-10T14:21:20.570Z,21.93
2023-05-10T14:23:48.745Z,21.75
2023-05-10T14:26:17.144Z,22.39
2023-05-10T14:28:45.967Z,22.45
2023-05-10T14:31:15.338Z,22.17
2023-05-10T14:33:43.866Z,21.72
2023-05-10T14:36:12.480Z,21.46
2023-05-10T14:38:42.132Z,21.34
2023-05-10T14:41:11.827Z,21.77
2023-05-10T14:43:40.192Z,22.44
2023-05-10T14:46:08.512Z,22.80
2023-05-10T14:48:36.884Z,22.75
2023-05-10T14:51:05.512Z,22.72
2023-05-10T14:53:33.727Z,23.09
2023-05-10T14:56:03.951Z,24.02
2023-05-10T14:58:34.153Z,25.01
2023-05-10T15:01:02.718Z,25.47
2023-05-10T15:03:31.533Z,26.03
2023-05-10T15:06:00.234Z,25.41
2023-05-10T15:08:28.804Z,26.73
2023-05-10T15:10:57.257Z,26.46
2023-05-10T15:13:26.922Z,25.11
2023-05-10T15:15:55.292Z,26.35
2023-05-10T15:18:26.592Z,27.20
2023-05-10T15:20:54.802Z,27.40
2023-05-10T15:23:23.020Z,24.96
2023-05-10T15:25:51.264Z,25.61
2023-05-10T15:28:19.472Z,27.56
2023-05-10T15:30:49.242Z,28.19
2023-05-10T15:33:17.457Z,26.84
2023-05-10T15:35:45.756Z,27.55
2023-05-10T15:38:13.894Z,27.44
2023-05-10T15:40:42.150Z,27.32
2023-05-10T15:43:10.345Z,25.81
2023-05-10T15:45:38.518Z,27.16
2023-05-10T15:48:08.387Z,26.65
2023-05-10T15:50:36.611Z,24.96
2023-05-10T15:53:04.867Z,23.61
2023-05-10T15:55:33.094Z,24.41
2023-05-10T15:58:01.241Z,25.83
2023-05-10T16:00:30.375Z,26.30
2023-05-10T16:02:58.645Z,25.68
2023-05-10T16:05:31.956Z,24.51
2023-05-10T16:08:00.263Z,23.25
2023-05-10T16:10:28.689Z,23.19
2023-05-10T16:12:57.306Z,22.44
2023-05-10T16:15:25.483Z,22.33
2023-05-10T16:17:53.794Z,23.42
2023-05-10T16:20:22.120Z,23.83
2023-05-10T16:22:52.092Z,22.77
2023-05-10T16:25:20.391Z,22.04
2023-05-10T16:27:48.877Z,22.12
2023-05-10T16:30:17.166Z,22.58
2023-05-10T16:32:45.449Z,22.22
2023-05-10T16:35:13.618Z,22.19
2023-05-10T16:37:41.787Z,22.10
2023-05-10T16:40:12.106Z,21.60
2023-05-10T16:42:40.297Z,21.38
2023-05-10T16:45:09.778Z,21.11
2023-05-10T16:47:39.452Z,21.25
2023-05-10T16:50:09.495Z,20.83
2023-05-10T16:52:38.805Z,20.62
2023-05-10T16:55:07.704Z,20.29
2023-05-10T16:57:37.345Z,20.29
2023-05-10T17:00:06.609Z,20.08
2023-05-10T17:02:35.109Z,20.11
2023-05-10T17:05:03.427Z,20.22
2023-05-10T17:07:31.754Z,20.36
2023-05-10T17:10:00.134Z,20.26
2023-05-10T17:12:28.462Z,20.18
2023-05-10T17:14:58.694Z,20.08
2023-05-10T17:17:26.914Z,20.04
2023-05-10T17:19:55.143Z,20.05
2023-05-10T17:22:23.338Z,19.96
2023-05-10T17:24:51.628Z,19.98
2023-05-10T17:27:19.834Z,19.83
2023-05-10T17:29:48.008Z,19.74
2023-05-10T17:32:17.465Z,19.79
2023-05-10T17:34:45.756Z,19.72
2023-05-10T17:37:14.070Z,19.55
2023-05-10T17:39:42.236Z,19.38
2023-05-10T17:42:10.413Z,19.28
2023-05-10T17:44:38.591Z,19.20
2023-05-10T17:47:07.272Z,19.23
2023-05-10T17:49:36.816Z,19.20
2023-05-10T17:52:05.063Z,19.26
2023-05-10T17:54:33.251Z,19.27
2023-05-10T17:57:02.065Z,19.24
2023-05-10T17:59:30.314Z,19.09
2023-05-10T18:01:58.466Z,19.00
2023-05-10T18:04:27.331Z,18.99
2023-05-10T18:07:01.369Z,18.89
2023-05-10T18:09:30.245Z,18.65
2023-05-10T18:11:58.547Z,18.56
2023-05-10T18:14:39.758Z,18.51
2023-05-10T18:17:09.937Z,18.48
2023-05-10T18:19:38.293Z,18.59
2023-05-10T18:22:10.702Z,18.58
2023-05-10T18:24:40.324Z,18.72
2023-05-10T18:27:09.177Z,18.58
2023-05-10T18:29:37.775Z,18.80
2023-05-10T18:32:06.531Z,18.52
2023-05-10T18:34:34.775Z,18.41
2023-05-10T18:37:07.429Z,18.26
2023-05-10T18:39:37.577Z,18.22
2023-05-10T18:42:06.560Z,18.17
2023-05-10T18:44:34.787Z,18.21
2023-05-10T18:47:03.052Z,18.22
2023-05-10T18:49:31.358Z,18.16
2023-05-10T18:51:59.565Z,18.06
2023-05-10T18:54:27.829Z,18.16
2023-05-10T18:56:58.630Z,17.94
2023-05-10T18:59:27.789Z,17.97
2023-05-10T19:01:57.540Z,17.86
2023-05-10T19:04:26.192Z,17.85
2023-05-10T19:06:55.804Z,17.69
2023-05-10T19:09:24.292Z,17.65
2023-05-10T19:11:52.610Z,17.83
2023-05-10T19:14:22.129Z,17.73
2023-05-10T19:16:53.425Z,17.74
2023-05-10T19:19:24.275Z,17.75
2023-05-10T19:21:54.735Z,17.59
2023-05-10T19:24:23.802Z,17.58
2023-05-10T19:26:52.080Z,17.55
2023-05-10T19:29:21.739Z,17.45
2023-05-10T19:31:52.130Z,17.50
2023-05-10T19:34:20.818Z,17.35
2023-05-10T19:36:49.059Z,17.18
2023-05-10T19:39:17.580Z,17.10
2023-05-10T19:41:45.841Z,16.90
2023-05-10T19:44:13.966Z,16.76
2023-05-10T19:46:43.564Z,16.61
2023-05-10T19:49:11.776Z,16.76
2023-05-10T19:51:40.270Z,16.76
2023-05-10T19:54:08.459Z,16.54
2023-05-10T19:56:36.600Z,16.45
2023-05-10T19:59:04.854Z,16.51
2023-05-10T20:01:33.159Z,16.22
2023-05-10T20:04:02.744Z,16.07
2023-05-10T20:06:31.696Z,16.07
2023-05-10T20:09:00.041Z,16.05
2023-05-10T20:11:28.337Z,15.76
2023-05-10T20:13:56.949Z,15.77
2023-05-10T20:16:26.770Z,15.66
2023-05-10T20:18:55.468Z,15.31
2023-05-10T20:21:26.415Z,15.10
2023-05-10T20:23:54.566Z,15.16
2023-05-10T20:26:22.714Z,15.03
2023-05-10T20:28:51.167Z,15.16
2023-05-10T20:31:19.509Z,15.02
2023-05-10T20:33:47.665Z,15.16
2023-05-10T20:36:16.028Z,14.92
2023-05-10T20:38:45.532Z,15.10
2023-05-10T20:41:13.794Z,15.04
2023-05-10T20:43:41.946Z,14.84
2023-05-10T20:46:10.295Z,14.89
2023-05-10T20:48:38.693Z,14.84
2023-05-10T20:51:06.992Z,14.89
2023-05-10T20:53:35.294Z,14.84
2023-05-10T20:56:05.006Z,14.70
2023-05-10T20:58:33.310Z,14.57
2023-05-10T21:01:02.112Z,14.69
2023-05-10T21:03:30.518Z,14.70
2023-05-10T21:05:58.694Z,14.68
2023-05-10T21:08:26.844Z,14.58
2023-05-10T21:10:55.160Z,14.51
2023-05-10T21:13:25.293Z,14.34
2023-05-10T21:15:53.562Z,14.25
2023-05-10T21:18:21.982Z,14.16
2023-05-10T21:20:50.665Z,14.06
2023-05-10T21:23:18.924Z,14.16
2023-05-10T21:25:47.153Z,13.75
2023-05-10T21:28:15.454Z,14.05
2023-05-10T21:30:44.958Z,14.00
2023-05-10T21:33:13.154Z,14.00
2023-05-10T21:35:42.922Z,14.00
2023-05-10T21:38:11.848Z,13.89
2023-05-10T21:40:40.373Z,13.90
2023-05-10T21:43:09.859Z,13.96
2023-05-10T21:45:38.166Z,14.04
2023-05-10T21:48:07.901Z,13.90
2023-05-10T21:50:36.226Z,13.78
2023-05-10T21:53:04.673Z,13.86
2023-05-10T21:55:34.227Z,13.81
2023-05-10T21:58:02.433Z,13.99
2023-05-10T22:00:32.216Z,14.13
2023-05-10T22:03:01.869Z,13.92
2023-05-10T22:05:31.582Z,13.92
2023-05-10T22:07:59.731Z,13.82
2023-05-10T22:10:27.874Z,13.79
2023-05-10T22:12:56.192Z,13.62
2023-05-10T22:15:24.378Z,13.81
2023-05-10T22:17:52.710Z,13.80
2023-05-10T22:20:21.329Z,13.57
2023-05-10T22:22:50.842Z,13.52
2023-05-10T22:25:19.143Z,13.49
2023-05-10T22:27:47.370Z,13.52
2023-05-10T22:30:16.322Z,13.49
2023-05-10T22:32:44.779Z,13.54
2023-05-10T22:35:13.001Z,13.45
2023-05-10T22:37:41.547Z,13.37
2023-05-10T22:40:12.584Z,13.33
2023-05-10T22:42:40.819Z,13.18
2023-05-10T22:45:10.402Z,13.24
2023-05-10T22:47:39.703Z,13.28
2023-05-10T22:50:09.779Z,13.36
2023-05-10T22:52:39.324Z,13.40
2023-05-10T22:55:08.200Z,13.35
2023-05-10T22:57:37.997Z,13.33
2023-05-10T23:00:08.211Z,13.09
2023-05-10T23:02:36.592Z,13.08
2023-05-10T23:05:05.772Z,13.06
2023-05-10T23:07:35.287Z,13.06
2023-05-10T23:10:03.473Z,12.67
2023-05-10T23:12:32.051Z,12.84
2023-05-10T23:15:01.674Z,12.70
2023-05-10T23:17:29.854Z,12.59
2023-05-10T23:19:58.192Z,12.61
2023-05-10T23:22:26.394Z,12.73
2023-05-10T23:24:54.581Z,12.71
2023-05-10T23:27:22.738Z,12.66
2023-05-10T23:29:52.412Z,12.74
2023-05-10T23:32:21.983Z,12.49
2023-05-10T23:34:50.171Z,12.42
2023-05-10T23:37:18.369Z,12.47
2023-05-10T23:39:46.620Z,12.55
2023-05-10T23:42:14.815Z,12.71
2023-05-10T23:44:42.984Z,12.71
2023-05-10T23:47:11.387Z,12.49
2023-05-10T23:49:42.054Z,12.46
2023-05-10T23:52:10.443Z,12.30
2023-05-10T23:54:38.633Z,12.17
2023-05-10T23:57:06.780Z,11.98
2023-05-10T23:59:34.985Z,12.06
